Time;durP1;ratioP1;P1;durP2;ratioP2;P2;SDS_P1;SDS_P2;PMS_P1;PMS_P2;Temp;Humidity;BMP_temperature;BMP_pressure;BME280_temperature;BME280_humidity;BME280_pressure;Samples;Min_cycle;Max_cycle;Signal;HPM_P1;HPM_P2
2020/12/20 00:00:15;;;;;;;1.85;1.10;;;15.50;70.20;;;;;;4997327;28;20054;-66
2020/12/20 00:02:51;;;;;;;2.08;1.17;;;15.50;69.40;;;;;;4986349;28;20046;-67
2020/12/20 00:05:23;;;;;;;3.53;0.88;;;15.50;69.40;;;;;;4992489;28;20436;-66
2020/12/20 00:07:57;;;;;;;1.40;1.10;;;15.60;69.50;;;;;;4992878;28;20129;-69
2020/12/20 00:10:27;;;;;;;1.52;0.90;;;15.60;69.50;;;;;;4993230;28;20130;-66
2020/12/20 00:12:58;;;;;;;3.17;1.25;;;15.60;69.50;;;;;;4995151;28;20139;-66
2020/12/20 00:15:31;;;;;;;1.05;0.95;;;15.70;69.50;;;;;;4988204;28;20373;-66
2020/12/20 00:18:06;;;;;;;2.40;1.05;;;15.70;69.50;;;;;;4987622;28;20127;-67
2020/12/20 00:20:41;;;;;;;1.13;1.02;;;15.70;69.60;;;;;;5002589;28;20278;-67
2020/12/20 00:23:14;;;;;;;3.45;1.33;;;15.80;69.60;;;;;;4988296;28;20038;-67
2020/12/20 00:25:46;;;;;;;1.92;1.00;;;15.70;69.50;;;;;;4992123;28;20043;-67
2020/12/20 00:28:16;;;;;;;1.85;1.30;;;15.80;69.60;;;;;;4992377;28;20061;-67
2020/12/20 00:30:46;;;;;;;1.20;0.93;;;15.80;69.50;;;;;;4994400;28;20537;-67
2020/12/20 00:33:18;;;;;;;1.83;1.20;;;15.80;69.60;;;;;;4990085;28;20128;-68
2020/12/20 00:35:52;;;;;;;2.50;1.40;;;15.90;69.60;;;;;;5004373;28;20046;-69
2020/12/20 00:38:25;;;;;;;1.35;0.88;;;15.90;69.60;;;;;;4989706;28;20065;-68
2020/12/20 00:40:55;;;;;;;2.10;1.00;;;15.90;69.60;;;;;;5000461;28;20096;-66
2020/12/20 00:43:25;;;;;;;1.42;0.80;;;16.00;69.60;;;;;;4991823;28;20045;-67
2020/12/20 00:45:56;;;;;;;1.73;0.90;;;16.00;69.60;;;;;;4993438;28;20050;-67
2020/12/20 00:48:27;;;;;;;1.40;0.95;;;16.00;69.50;;;;;;4993041;28;20054;-70
2020/12/20 00:51:00;;;;;;;2.47;0.93;;;16.10;69.60;;;;;;4999480;28;20239;-69
2020/12/20 00:53:31;;;;;;;1.73;0.82;;;16.10;69.60;;;;;;4987465;28;20042;-69
2020/12/20 00:56:05;;;;;;;1.70;1.20;;;16.10;69.60;;;;;;4993537;28;20455;-69
2020/12/20 00:58:38;;;;;;;1.55;0.93;;;16.20;69.70;;;;;;4973569;28;22573;-68
2020/12/20 01:01:14;;;;;;;1.90;1.23;;;16.20;69.50;;;;;;4991410;28;20205;-69
2020/12/20 01:03:51;;;;;;;4.07;1.27;;;16.20;69.60;;;;;;5000624;28;20053;-70
2020/12/20 01:06:22;;;;;;;2.72;1.00;;;16.30;69.60;;;;;;4998987;28;20087;-71
2020/12/20 01:09:07;;;;;;;1.67;0.95;;;16.30;69.50;;;;;;4985433;28;20056;-70
2020/12/20 01:11:40;;;;;;;1.10;0.93;;;16.30;69.40;;;;;;4986923;28;20053;-68
2020/12/20 01:14:12;;;;;;;1.08;0.70;;;16.40;69.50;;;;;;4988273;28;20054;-68
2020/12/20 01:16:52;;;;;;;1.85;1.17;;;16.40;69.50;;;;;;4985741;28;20157;-70
2020/12/20 01:19:42;;;;;;;2.25;0.80;;;16.40;69.50;;;;;;4987266;28;20388;-69
2020/12/20 01:22:14;;;;;;;3.13;0.85;;;16.40;69.40;;;;;;4991503;28;20096;-66
2020/12/20 01:24:44;;;;;;;;;;;16.50;69.30;;;;;;4985102;28;20057;-65
2020/12/20 01:27:17;;;;;;;1.08;0.80;;;16.50;69.40;;;;;;4984998;28;19972;-70
2020/12/20 01:29:47;;;;;;;2.80;0.80;;;16.50;69.30;;;;;;5002732;28;20126;-65
2020/12/20 01:32:19;;;;;;;1.02;0.77;;;16.50;69.20;;;;;;4992014;28;20109;-66
2020/12/20 01:34:58;;;;;;;1.60;1.20;;;16.50;69.30;;;;;;4995403;28;20536;-68
2020/12/20 01:37:34;;;;;;;3.92;1.25;;;16.60;69.30;;;;;;4990211;28;20120;-68
2020/12/20 01:40:09;;;;;;;1.20;1.05;;;16.60;69.20;;;;;;4992666;28;20073;-66
2020/12/20 01:42:39;;;;;;;2.58;0.80;;;16.70;69.20;;;;;;4993710;28;20490;-69
2020/12/20 01:45:21;;;;;;;1.65;0.70;;;16.70;69.10;;;;;;4986211;28;20050;-67
2020/12/20 01:47:54;;;;;;;3.72;1.10;;;16.70;69.10;;;;;;4997267;28;20038;-67
2020/12/20 01:50:26;;;;;;;2.10;0.80;;;16.70;69.10;;;;;;4986133;28;20078;-66
2020/12/20 01:53:00;;;;;;;1.90;0.73;;;16.80;69.10;;;;;;4994188;28;20062;-70
2020/12/20 01:55:34;;;;;;;0.85;0.85;;;16.80;69.00;;;;;;4997796;28;20041;-67
2020/12/20 01:58:10;;;;;;;1.67;1.00;;;16.80;68.90;;;;;;4994399;28;20137;-66
2020/12/20 02:00:49;;;;;;;1.95;0.95;;;16.90;68.90;;;;;;4989185;28;20250;-66
2020/12/20 02:03:39;;;;;;;1.58;0.90;;;16.90;68.90;;;;;;5003457;28;20065;-65
2020/12/20 02:06:16;;;;;;;1.05;0.70;;;16.90;68.80;;;;;;4970229;28;20429;-66
2020/12/20 02:08:57;;;;;;;1.10;0.63;;;17.00;68.90;;;;;;4994152;28;20034;-65
2020/12/20 02:11:30;;;;;;;1.48;0.80;;;17.00;68.80;;;;;;4990365;28;20100;-65
2020/12/20 02:14:09;;;;;;;0.60;0.60;;;17.00;68.80;;;;;;4989873;28;20136;-65
2020/12/20 02:16:53;;;;;;;1.33;1.08;;;17.00;68.80;;;;;;4979913;28;20232;-64
2020/12/20 02:19:26;;;;;;;1.40;0.98;;;17.10;68.70;;;;;;4990840;28;20050;-65
2020/12/20 02:22:18;;;;;;;0.77;0.77;;;17.10;68.70;;;;;;4984854;28;20145;-65
2020/12/20 02:24:51;;;;;;;1.55;0.90;;;17.20;68.60;;;;;;4983814;28;20413;-64
2020/12/20 02:27:39;;;;;;;3.72;0.80;;;17.20;68.50;;;;;;4989962;28;20058;-64
2020/12/20 02:30:10;;;;;;;1.23;1.03;;;17.20;68.40;;;;;;4969981;28;20077;-65
2020/12/20 02:32:43;;;;;;;2.33;1.23;;;17.20;68.40;;;;;;4980897;28;20065;-66
2020/12/20 02:35:14;;;;;;;1.23;0.80;;;17.30;68.40;;;;;;4983159;28;20511;-65
2020/12/20 02:37:45;;;;;;;0.70;0.55;;;17.30;68.40;;;;;;4988904;28;20050;-65
2020/12/20 02:40:18;;;;;;;0.70;0.70;;;17.30;68.30;;;;;;4993087;28;20143;-70
2020/12/20 02:42:57;;;;;;;1.20;0.60;;;17.30;68.30;;;;;;5005520;28;20415;-70
2020/12/20 02:45:27;;;;;;;1.85;1.00;;;17.40;68.20;;;;;;4984369;28;20141;-70
2020/12/20 02:47:57;;;;;;;2.25;0.70;;;17.40;68.20;;;;;;4991676;28;20081;-70
2020/12/20 02:50:41;;;;;;;5.18;1.10;;;17.40;68.00;;;;;;4989652;28;20046;-66
2020/12/20 02:53:12;;;;;;;1.80;0.93;;;17.50;68.10;;;;;;4994086;28;20052;-69
2020/12/20 02:55:48;;;;;;;1.00;0.90;;;17.50;68.00;;;;;;4988296;28;20045;-69
2020/12/20 02:58:20;;;;;;;1.52;0.85;;;17.50;68.00;;;;;;4986140;28;20050;-71
2020/12/20 03:01:03;;;;;;;3.83;1.42;;;17.50;67.90;;;;;;4988924;28;20048;-66
2020/12/20 03:03:36;;;;;;;3.53;1.98;;;17.60;67.90;;;;;;4981602;28;20049;-65
2020/12/20 03:06:07;;;;;;;2.25;1.10;;;17.60;67.90;;;;;;4970641;28;20056;-66
2020/12/20 03:08:40;;;;;;;1.98;1.00;;;17.60;67.80;;;;;;4990450;28;20282;-65
2020/12/20 03:11:10;;;;;;;4.00;0.80;;;17.70;67.80;;;;;;4986958;28;20050;-69
2020/12/20 03:13:42;;;;;;;1.38;1.10;;;17.70;67.80;;;;;;4985919;28;20478;-69
2020/12/20 03:16:15;;;;;;;1.08;0.63;;;17.70;67.70;;;;;;4991592;28;20053;-68
2020/12/20 03:18:53;;;;;;;1.23;0.90;;;17.80;67.70;;;;;;4993866;28;20148;-69
2020/12/20 03:21:25;;;;;;;2.15;0.85;;;17.80;67.70;;;;;;4989072;28;20473;-69
2020/12/20 03:24:13;;;;;;;1.90;0.70;;;17.80;67.60;;;;;;4989184;28;20369;-65
2020/12/20 03:27:15;;;;;;;1.60;0.77;;;17.90;67.60;;;;;;4991363;28;20058;-69
2020/12/20 03:30:07;;;;;;;2.08;0.80;;;17.90;67.50;;;;;;4980724;28;20062;-64
2020/12/20 03:32:52;;;;;;;1.30;1.02;;;18.00;67.50;;;;;;5001049;28;20589;-65
2020/12/20 03:35:53;;;;;;;1.35;1.00;;;18.00;67.40;;;;;;4978228;28;20081;-69
2020/12/20 03:38:25;;;;;;;0.70;0.68;;;18.00;67.40;;;;;;4995175;28;20069;-71
2020/12/20 03:40:55;;;;;;;2.67;1.30;;;18.10;67.40;;;;;;4990102;28;20058;-65
2020/12/20 03:43:26;;;;;;;1.42;0.70;;;18.10;67.30;;;;;;4995807;28;20053;-71
2020/12/20 03:45:59;;;;;;;2.55;0.77;;;18.10;67.20;;;;;;4991460;28;20054;-65
2020/12/20 03:48:44;;;;;;;2.80;0.85;;;18.10;67.10;;;;;;5001152;28;20078;-71
2020/12/20 03:51:18;;;;;;;1.88;0.90;;;18.20;67.10;;;;;;4998396;28;20559;-63
2020/12/20 03:54:03;;;;;;;2.83;0.75;;;18.20;67.00;;;;;;4991198;28;20054;-65
2020/12/20 03:56:38;;;;;;;2.45;0.98;;;18.20;66.80;;;;;;4985699;28;20357;-69
2020/12/20 03:59:16;;;;;;;2.63;0.82;;;18.30;66.90;;;;;;5005489;28;20135;-70
2020/12/20 04:01:51;;;;;;;1.17;0.85;;;18.30;66.80;;;;;;5000267;28;20285;-69
2020/12/20 04:04:21;;;;;;;2.30;0.93;;;18.30;66.80;;;;;;4991125;28;20058;-69
2020/12/20 04:06:52;;;;;;;4.07;1.17;;;18.30;66.70;;;;;;4984980;28;20050;-70
2020/12/20 04:09:24;;;;;;;1.80;1.02;;;18.30;66.60;;;;;;5004349;28;20046;-64
2020/12/20 04:12:11;;;;;;;3.63;0.88;;;18.30;66.60;;;;;;4993028;28;20069;-70
2020/12/20 04:14:43;;;;;;;5.03;0.80;;;18.40;66.60;;;;;;4996439;28;20058;-69
2020/12/20 04:17:18;;;;;;;2.97;0.98;;;18.40;66.50;;;;;;4984780;28;20532;-70
2020/12/20 04:19:54;;;;;;;2.42;0.88;;;18.40;66.50;;;;;;4989236;28;20045;-65
2020/12/20 04:22:48;;;;;;;3.15;0.80;;;18.40;66.50;;;;;;4987505;28;20050;-70
2020/12/20 04:25:32;;;;;;;1.50;1.00;;;18.50;66.50;;;;;;4978298;28;20142;-69
2020/12/20 04:28:21;;;;;;;2.85;1.35;;;18.50;66.40;;;;;;4985265;28;20054;-65
2020/12/20 04:30:57;;;;;;;1.25;0.70;;;18.50;66.30;;;;;;4993897;28;20049;-65
2020/12/20 04:33:32;;;;;;;2.33;0.60;;;18.60;66.40;;;;;;4992587;28;20080;-70
2020/12/20 04:36:13;;;;;;;1.63;1.05;;;18.60;66.30;;;;;;5002387;28;20133;-69
2020/12/20 04:38:47;;;;;;;2.25;0.90;;;18.60;66.20;;;;;;4997715;28;20451;-70
2020/12/20 04:41:25;;;;;;;0.80;0.80;;;18.60;66.20;;;;;;4987512;28;20701;-65
2020/12/20 04:47:06;;;;;;;1.67;1.10;;;18.60;66.00;;;;;;5003134;28;20084;-65
2020/12/20 04:49:56;;;;;;;4.35;1.10;;;18.60;66.00;;;;;;4987557;28;20402;-65
2020/12/20 04:52:33;;;;;;;1.75;1.13;;;18.70;65.80;;;;;;4987951;28;20065;-70
2020/12/20 04:55:09;;;;;;;1.52;0.90;;;18.70;65.90;;;;;;5000936;28;20505;-69
2020/12/20 04:57:58;;;;;;;1.55;0.80;;;18.70;65.90;;;;;;4994777;28;20064;-65
2020/12/20 05:00:34;;;;;;;1.70;0.80;;;18.70;65.90;;;;;;4995243;28;20070;-65
2020/12/20 05:03:07;;;;;;;1.77;0.73;;;18.70;65.80;;;;;;4995154;28;20105;-69
2020/12/20 05:05:40;;;;;;;4.22;1.15;;;18.70;65.80;;;;;;4985276;28;20538;-70
2020/12/20 05:08:14;;;;;;;1.20;0.80;;;18.70;65.70;;;;;;4991474;28;20313;-65
2020/12/20 05:10:44;;;;;;;3.55;1.27;;;18.70;65.70;;;;;;4992380;28;20042;-70
2020/12/20 05:13:15;;;;;;;1.42;0.95;;;18.80;65.80;;;;;;4985903;28;20058;-63
2020/12/20 05:15:51;;;;;;;3.08;0.85;;;18.80;65.80;;;;;;4990054;28;20430;-69
2020/12/20 05:18:52;;;;;;;3.63;0.80;;;18.80;65.80;;;;;;4985256;28;20055;-69
2020/12/20 05:21:32;;;;;;;3.90;1.30;;;18.80;65.70;;;;;;4995481;28;20124;-64
2020/12/20 05:24:27;;;;;;;1.88;1.60;;;18.80;65.70;;;;;;4991608;28;20049;-69
2020/12/20 05:27:03;;;;;;;1.40;1.00;;;18.90;65.60;;;;;;4985045;28;20073;-64
2020/12/20 05:29:34;;;;;;;0.80;0.70;;;18.90;65.60;;;;;;4991433;28;20572;-63
2020/12/20 05:32:29;;;;;;;2.35;1.40;;;18.90;65.60;;;;;;4994085;28;20069;-69
2020/12/20 05:35:11;;;;;;;5.07;1.55;;;18.90;65.60;;;;;;4989725;28;20131;-69
2020/12/20 05:37:45;;;;;;;5.47;1.05;;;19.00;65.60;;;;;;4989074;28;20072;-64
2020/12/20 05:40:27;;;;;;;1.65;0.90;;;19.00;65.50;;;;;;4993187;28;20073;-69
2020/12/20 05:43:04;;;;;;;2.67;0.95;;;19.00;65.60;;;;;;4995824;28;20308;-69
2020/12/20 05:45:44;;;;;;;6.20;1.25;;;19.00;65.50;;;;;;4991233;28;20494;-69
2020/12/20 05:48:30;;;;;;;3.97;1.35;;;19.00;65.50;;;;;;4993250;28;20205;-70
2020/12/20 05:51:12;;;;;;;1.20;1.08;;;19.00;65.40;;;;;;4983878;28;20050;-69
2020/12/20 05:53:45;;;;;;;2.40;1.27;;;19.10;65.40;;;;;;4991276;28;20062;-69
2020/12/20 05:56:22;;;;;;;1.95;0.90;;;19.10;65.40;;;;;;4988974;28;20046;-72
2020/12/20 05:58:56;;;;;;;4.63;1.00;;;19.10;65.30;;;;;;4988307;28;20042;-71
2020/12/20 06:01:28;;;;;;;3.42;1.10;;;19.10;65.20;;;;;;4994044;28;20042;-70
2020/12/20 06:04:01;;;;;;;3.40;0.97;;;19.10;65.20;;;;;;4987715;28;20054;-71
2020/12/20 06:06:35;;;;;;;3.10;0.90;;;19.10;65.20;;;;;;4994473;28;20351;-71
2020/12/20 06:09:08;;;;;;;1.15;0.68;;;19.20;65.10;;;;;;4982832;28;22563;-69
2020/12/20 06:11:41;;;;;;;2.08;1.00;;;19.20;65.10;;;;;;4994108;28;20533;-70
2020/12/20 06:14:17;;;;;;;;;;;19.20;65.00;;;;;;4989695;28;20566;-69
2020/12/20 06:17:11;;;;;;;2.30;1.40;;;19.20;65.10;;;;;;4994068;28;19925;-70
2020/12/20 06:20:04;;;;;;;2.65;1.15;;;19.20;65.00;;;;;;4998972;28;20557;-70
2020/12/20 06:22:56;;;;;;;2.45;1.30;;;19.20;64.90;;;;;;4989614;28;20054;-70
2020/12/20 06:25:27;;;;;;;2.70;0.90;;;19.30;65.00;;;;;;4993762;28;20090;-70
2020/12/20 06:28:05;;;;;;;1.85;0.90;;;19.30;64.90;;;;;;4987791;28;20759;-70
2020/12/20 06:30:38;;;;;;;1.98;1.48;;;19.30;64.80;;;;;;4996281;28;20426;-70
2020/12/20 06:33:34;;;;;;;2.80;1.30;;;19.30;64.80;;;;;;4987654;28;20065;-70
2020/12/20 06:36:11;;;;;;;1.83;0.80;;;19.30;64.70;;;;;;4982217;28;20137;-70
2020/12/20 06:38:55;;;;;;;3.40;1.27;;;19.30;64.70;;;;;;4986568;28;20061;-70
2020/12/20 06:41:36;;;;;;;2.40;1.73;;;19.30;64.60;;;;;;5000654;28;20053;-70
2020/12/20 06:44:16;;;;;;;2.90;1.30;;;19.30;64.50;;;;;;4988023;28;20967;-70
2020/12/20 06:46:46;;;;;;;1.23;0.88;;;19.40;64.50;;;;;;4993583;28;20121;-70
2020/12/20 06:49:35;;;;;;;2.08;1.00;;;19.40;64.50;;;;;;4990997;28;20078;-72
2020/12/20 06:52:27;;;;;;;6.15;1.08;;;19.40;64.40;;;;;;4992879;28;20070;-71
2020/12/20 06:55:11;;;;;;;1.15;0.77;;;19.40;64.30;;;;;;4991426;28;20046;-70
2020/12/20 06:58:04;;;;;;;1.08;0.95;;;19.40;64.20;;;;;;4986112;28;20039;-71
2020/12/20 07:00:48;;;;;;;2.33;1.15;;;19.40;64.20;;;;;;4987479;28;20065;-71
2020/12/20 07:03:24;;;;;;;3.95;0.98;;;19.40;64.00;;;;;;4996845;28;20108;-70
2020/12/20 07:06:18;;;;;;;3.55;1.00;;;19.50;64.00;;;;;;4998570;28;20053;-70
2020/12/20 07:08:59;;;;;;;3.25;0.82;;;19.50;64.10;;;;;;4995859;28;20049;-70
2020/12/20 07:11:29;;;;;;;1.55;1.00;;;19.50;64.10;;;;;;4993416;28;20101;-70
2020/12/20 07:14:27;;;;;;;3.25;1.27;;;19.50;64.00;;;;;;4994941;28;20159;-71
2020/12/20 07:17:00;;;;;;;3.80;0.77;;;19.50;64.00;;;;;;4994835;28;20098;-70
2020/12/20 07:19:33;;;;;;;2.90;1.08;;;19.50;63.90;;;;;;4994001;28;20070;-71
2020/12/20 07:22:04;;;;;;;2.72;0.90;;;19.60;63.90;;;;;;4993654;28;20039;-71
2020/12/20 07:24:38;;;;;;;2.50;0.77;;;19.60;63.80;;;;;;4999238;28;20101;-71
2020/12/20 07:27:08;;;;;;;1.80;0.82;;;19.60;63.70;;;;;;5001224;28;20109;-71
2020/12/20 07:29:38;;;;;;;3.30;0.70;;;19.60;63.70;;;;;;4992110;28;20038;-71
2020/12/20 07:32:09;;;;;;;5.43;1.02;;;19.60;63.60;;;;;;4994530;28;20046;-71
2020/12/20 07:34:48;;;;;;;3.67;1.15;;;19.60;63.50;;;;;;4990786;28;20044;-71
2020/12/20 07:37:19;;;;;;;3.13;0.80;;;19.60;63.50;;;;;;5000593;28;20088;-71
2020/12/20 07:40:06;;;;;;;2.35;1.05;;;19.70;63.50;;;;;;4992768;28;20034;-71
2020/12/20 07:42:38;;;;;;;2.05;1.20;;;19.70;63.40;;;;;;4995592;28;20030;-71
2020/12/20 07:45:11;;;;;;;2.20;1.00;;;19.70;63.40;;;;;;4992343;28;20104;-71
2020/12/20 07:47:50;;;;;;;1.52;0.90;;;19.70;63.40;;;;;;4991853;28;20043;-70
2020/12/20 07:50:25;;;;;;;2.38;1.08;;;19.70;63.30;;;;;;4993432;28;20235;-71
2020/12/20 07:52:57;;;;;;;2.42;1.05;;;19.70;63.30;;;;;;5000145;28;20153;-69
2020/12/20 07:55:33;;;;;;;2.00;0.85;;;19.70;63.30;;;;;;4994142;28;20125;-69
2020/12/20 07:58:07;;;;;;;1.83;0.63;;;19.70;63.20;;;;;;5004651;28;20758;-70
2020/12/20 08:00:44;;;;;;;2.08;1.25;;;19.70;63.20;;;;;;4996695;28;20050;-70
2020/12/20 08:03:14;;;;;;;4.25;1.15;;;19.70;63.10;;;;;;5005513;28;20117;-70
2020/12/20 08:05:44;;;;;;;0.77;0.73;;;19.80;63.20;;;;;;4992337;28;20073;-70
2020/12/20 08:08:22;;;;;;;2.78;0.73;;;19.80;63.10;;;;;;4988877;28;20046;-70
2020/12/20 08:10:52;;;;;;;2.58;1.00;;;19.80;63.00;;;;;;4996855;28;20141;-70
2020/12/20 08:13:24;;;;;;;1.90;0.75;;;19.80;63.00;;;;;;4988389;28;20050;-72
2020/12/20 08:16:00;;;;;;;1.17;0.88;;;19.80;63.00;;;;;;4987132;28;20117;-70
2020/12/20 08:18:34;;;;;;;1.63;0.70;;;19.80;63.00;;;;;;4993808;28;20070;-68
2020/12/20 08:21:09;;;;;;;1.33;1.23;;;19.80;63.00;;;;;;4992790;28;20046;-68
2020/12/20 08:23:40;;;;;;;1.88;0.93;;;19.80;62.90;;;;;;5002707;28;20525;-69
2020/12/20 08:26:10;;;;;;;2.63;0.95;;;19.80;62.90;;;;;;4997474;28;20133;-68
2020/12/20 08:28:40;;;;;;;1.70;1.17;;;19.80;62.90;;;;;;4998402;28;20046;-69
2020/12/20 08:31:16;;;;;;;3.03;0.93;;;19.80;62.80;;;;;;4996944;28;21295;-69
2020/12/20 08:33:49;;;;;;;2.78;0.88;;;19.80;62.80;;;;;;4987641;28;20046;-69
2020/12/20 08:36:22;;;;;;;3.85;0.88;;;19.90;63.50;;;;;;4988984;28;20112;-69
2020/12/20 08:38:57;;;;;;;1.17;0.85;;;19.80;62.70;;;;;;4986305;28;20042;-69
2020/12/20 08:41:28;;;;;;;1.15;1.02;;;19.80;62.70;;;;;;4990351;28;20120;-69
2020/12/20 08:44:04;;;;;;;2.15;1.02;;;19.80;62.80;;;;;;4988252;28;20786;-69
2020/12/20 08:46:37;;;;;;;1.23;1.13;;;19.80;62.80;;;;;;4994038;28;20137;-68
2020/12/20 08:49:18;;;;;;;1.75;0.85;;;19.80;62.70;;;;;;4991896;28;20089;-69
2020/12/20 08:51:51;;;;;;;1.65;0.68;;;19.80;62.70;;;;;;4992809;28;20313;-70
2020/12/20 08:54:30;;;;;;;1.30;0.70;;;19.90;62.70;;;;;;4999116;28;20046;-69
2020/12/20 08:57:07;;;;;;;0.60;0.50;;;19.80;62.70;;;;;;4984156;28;20461;-70
2020/12/20 08:59:47;;;;;;;2.08;0.90;;;19.80;62.70;;;;;;4991901;28;20573;-70
2020/12/20 09:02:22;;;;;;;1.45;1.08;;;19.80;62.60;;;;;;5001534;28;20153;-68
2020/12/20 09:05:11;;;;;;;1.75;0.82;;;19.80;62.60;;;;;;4992826;28;20402;-68
2020/12/20 09:07:47;;;;;;;0.73;0.60;;;19.80;62.70;;;;;;4972353;28;20599;-68
2020/12/20 09:10:26;;;;;;;8.00;1.02;;;19.80;62.60;;;;;;4995297;28;20494;-68
2020/12/20 09:13:02;;;;;;;1.55;0.93;;;19.80;62.70;;;;;;4985700;28;20058;-67
2020/12/20 09:15:36;;;;;;;1.60;0.85;;;19.80;62.60;;;;;;4990234;28;20220;-69
2020/12/20 09:18:25;;;;;;;2.80;1.30;;;19.80;62.60;;;;;;5001225;28;20119;-67
2020/12/20 09:20:57;;;;;;;1.23;0.85;;;19.80;62.60;;;;;;4991981;28;20042;-68
2020/12/20 09:23:29;;;;;;;1.00;0.52;;;19.70;62.50;;;;;;4986440;28;20043;-67
2020/12/20 09:26:06;;;;;;;2.15;0.80;;;19.80;62.50;;;;;;5002423;28;20649;-67
2020/12/20 09:28:39;;;;;;;0.75;0.55;;;19.70;62.50;;;;;;4990385;28;20049;-67
2020/12/20 09:31:16;;;;;;;3.30;0.65;;;19.70;62.50;;;;;;4990531;28;20073;-67
2020/12/20 09:33:52;;;;;;;2.33;0.77;;;19.70;62.50;;;;;;4992600;28;20038;-67
2020/12/20 09:36:27;;;;;;;0.68;0.65;;;19.70;62.40;;;;;;4995070;28;20514;-66
2020/12/20 09:39:04;;;;;;;4.63;0.93;;;19.70;62.40;;;;;;4985083;28;20549;-67
2020/12/20 09:41:35;;;;;;;1.52;0.80;;;19.70;62.50;;;;;;5000338;28;20578;-67
2020/12/20 09:44:05;;;;;;;2.40;0.70;;;19.70;62.50;;;;;;4985363;28;20042;-66
2020/12/20 09:46:38;;;;;;;2.53;1.10;;;19.60;62.60;;;;;;4990132;28;20070;-65
2020/12/20 09:49:11;;;;;;;2.05;0.90;;;19.60;62.50;;;;;;4992252;28;20052;-67
2020/12/20 09:51:43;;;;;;;2.83;1.15;;;19.60;62.50;;;;;;4991871;28;20494;-67
2020/12/20 09:54:16;;;;;;;1.20;1.00;;;19.60;62.40;;;;;;4995033;28;20388;-67
2020/12/20 09:56:48;;;;;;;1.95;1.50;;;19.60;62.40;;;;;;4989313;28;20124;-66
2020/12/20 09:59:22;;;;;;;3.08;0.70;;;19.60;62.50;;;;;;4987023;28;20042;-66
2020/12/20 10:01:54;;;;;;;1.45;0.98;;;19.60;62.50;;;;;;4989537;28;20455;-64
2020/12/20 10:04:27;;;;;;;2.13;1.10;;;19.50;62.50;;;;;;4984513;28;20049;-65
2020/12/20 10:06:57;;;;;;;5.03;0.70;;;19.50;62.50;;;;;;4998510;28;20125;-65
2020/12/20 10:09:30;;;;;;;2.72;0.80;;;19.50;62.50;;;;;;5000252;28;20113;-67
2020/12/20 10:12:01;;;;;;;2.15;1.17;;;19.50;62.50;;;;;;4995600;28;20479;-67
2020/12/20 10:14:33;;;;;;;2.35;0.77;;;19.50;62.50;;;;;;4996167;28;20046;-66
2020/12/20 10:17:09;;;;;;;4.30;1.30;;;19.50;62.50;;;;;;4991794;28;20068;-67
2020/12/20 10:19:40;;;;;;;1.92;1.00;;;19.50;62.50;;;;;;4988747;28;20593;-67
2020/12/20 10:22:14;;;;;;;2.45;0.75;;;19.40;62.50;;;;;;4995673;28;20034;-66
2020/12/20 10:24:45;;;;;;;2.28;0.70;;;19.40;62.60;;;;;;4996188;28;20053;-65
2020/12/20 10:27:18;;;;;;;1.20;0.73;;;19.40;62.60;;;;;;4990154;28;20042;-65
2020/12/20 10:29:48;;;;;;;1.45;0.85;;;19.40;62.50;;;;;;4991834;28;20461;-65
2020/12/20 10:32:20;;;;;;;2.67;0.77;;;19.40;62.60;;;;;;4996405;28;20112;-65
2020/12/20 10:34:57;;;;;;;2.70;0.82;;;19.40;62.60;;;;;;4987389;28;20061;-66
2020/12/20 10:37:27;;;;;;;5.82;1.10;;;19.30;62.60;;;;;;4983983;28;20116;-66
2020/12/20 10:40:04;;;;;;;1.27;0.63;;;19.30;62.70;;;;;;4988822;28;20124;-65
2020/12/20 10:42:34;;;;;;;4.63;0.80;;;19.30;62.70;;;;;;4991110;28;20133;-66
2020/12/20 10:45:05;;;;;;;2.40;0.70;;;19.30;62.70;;;;;;4998627;28;20074;-66
2020/12/20 10:47:35;;;;;;;1.52;0.70;;;19.30;62.70;;;;;;4991793;28;20120;-66
2020/12/20 10:50:06;;;;;;;2.00;0.80;;;19.30;62.80;;;;;;4986927;28;20129;-66
2020/12/20 10:52:37;;;;;;;2.17;0.60;;;19.30;62.80;;;;;;4982740;28;20046;-64
2020/12/20 10:55:12;;;;;;;4.32;1.00;;;19.30;62.80;;;;;;4994683;28;20307;-66
2020/12/20 10:57:48;;;;;;;2.72;2.22;;;19.30;62.90;;;;;;4987786;28;20130;-67
2020/12/20 11:00:22;;;;;;;1.52;0.93;;;19.30;62.90;;;;;;4998718;28;20112;-65
2020/12/20 11:02:53;;;;;;;4.40;0.88;;;19.20;62.90;;;;;;4987063;28;20070;-65
2020/12/20 11:05:28;;;;;;;1.95;0.80;;;19.20;62.90;;;;;;4991814;28;20045;-66
2020/12/20 11:07:58;;;;;;;0.70;0.57;;;19.20;62.90;;;;;;4992841;28;20038;-67
2020/12/20 11:10:29;;;;;;;1.75;1.38;;;19.20;63.00;;;;;;4994966;28;20470;-65
2020/12/20 11:13:00;;;;;;;1.77;1.13;;;19.20;63.00;;;;;;4986220;28;20074;-66
2020/12/20 11:15:33;;;;;;;3.75;1.10;;;19.10;63.00;;;;;;4983919;28;20050;-65
2020/12/20 11:18:08;;;;;;;1.05;0.93;;;19.10;63.70;;;;;;4989073;28;20095;-66
2020/12/20 11:20:41;;;;;;;1.95;1.20;;;19.10;63.10;;;;;;4993885;28;20081;-65
2020/12/20 11:23:14;;;;;;;1.98;1.20;;;19.10;63.20;;;;;;4996351;28;20038;-66
2020/12/20 11:26:00;;;;;;;4.60;1.10;;;19.10;63.20;;;;;;4985807;28;20057;-65
2020/12/20 11:28:30;;;;;;;1.48;0.80;;;19.00;63.30;;;;;;4990448;28;20120;-66
2020/12/20 11:31:00;;;;;;;1.60;0.43;;;19.00;63.40;;;;;;4995278;28;20047;-65
2020/12/20 11:33:32;;;;;;;0.68;0.68;;;19.00;63.40;;;;;;4983307;28;20125;-65
2020/12/20 11:36:07;;;;;;;3.10;1.25;;;19.00;63.50;;;;;;4985223;28;20096;-65
2020/12/20 11:38:39;;;;;;;3.47;0.93;;;19.00;63.60;;;;;;4991829;28;20085;-65
2020/12/20 11:41:09;;;;;;;2.25;1.13;;;19.00;63.60;;;;;;4990432;28;20037;-66
2020/12/20 11:43:40;;;;;;;2.25;0.88;;;18.90;63.70;;;;;;4992068;28;20130;-65
2020/12/20 11:46:12;;;;;;;2.65;1.10;;;18.90;63.80;;;;;;4992493;28;20131;-64
2020/12/20 11:48:47;;;;;;;3.38;1.10;;;18.90;63.90;;;;;;4996667;28;20037;-66
2020/12/20 11:51:20;;;;;;;2.47;0.88;;;18.90;63.90;;;;;;4995236;28;20034;-65
2020/12/20 11:53:54;;;;;;;2.00;0.88;;;18.90;64.00;;;;;;4990067;28;20055;-67
2020/12/20 11:56:26;;;;;;;1.00;0.68;;;18.80;64.00;;;;;;4990174;28;20410;-65
2020/12/20 11:58:59;;;;;;;0.90;0.52;;;18.80;64.10;;;;;;4989917;28;20139;-66
2020/12/20 12:01:31;;;;;;;1.40;1.30;;;18.80;64.20;;;;;;4988440;28;20046;-66
2020/12/20 12:04:04;;;;;;;1.75;1.05;;;18.80;64.20;;;;;;4987719;28;20192;-66
2020/12/20 12:06:38;;;;;;;4.20;1.20;;;18.80;64.30;;;;;;4993462;28;20116;-67
2020/12/20 12:09:08;;;;;;;2.47;0.70;;;18.70;64.30;;;;;;4992869;28;20046;-66
2020/12/20 12:11:38;;;;;;;1.55;1.02;;;18.70;64.40;;;;;;4991057;28;20089;-66
2020/12/20 12:14:09;;;;;;;3.05;0.98;;;18.70;64.40;;;;;;4988881;28;20068;-68
2020/12/20 12:16:41;;;;;;;5.03;0.93;;;18.70;64.40;;;;;;4990009;28;20053;-67
2020/12/20 12:19:14;;;;;;;2.55;0.90;;;18.60;64.50;;;;;;4993763;28;20046;-65
2020/12/20 12:21:49;;;;;;;2.85;0.82;;;18.60;64.60;;;;;;4990169;28;20120;-65
2020/12/20 12:24:20;;;;;;;2.75;1.20;;;18.60;64.60;;;;;;4989203;28;20085;-65
2020/12/20 12:26:52;;;;;;;1.05;0.90;;;18.60;64.70;;;;;;4989941;28;20038;-65
2020/12/20 12:29:22;;;;;;;1.70;0.90;;;18.60;64.80;;;;;;4995437;28;20474;-66
2020/12/20 12:31:52;;;;;;;2.28;1.42;;;18.60;64.80;;;;;;4984267;28;20609;-65
2020/12/20 12:34:24;;;;;;;1.63;0.70;;;18.60;64.80;;;;;;4998212;28;20137;-66
2020/12/20 12:36:55;;;;;;;1.45;0.98;;;18.50;64.80;;;;;;4995075;28;20046;-65
2020/12/20 12:39:27;;;;;;;1.30;0.50;;;18.50;65.00;;;;;;4986942;28;20406;-65
2020/12/20 12:42:02;;;;;;;1.90;0.60;;;18.50;65.00;;;;;;4986524;28;20047;-66
2020/12/20 12:44:32;;;;;;;4.53;0.65;;;18.50;65.10;;;;;;4998533;28;20049;-65
2020/12/20 12:47:03;;;;;;;3.00;0.73;;;18.50;65.00;;;;;;4989694;28;20552;-65
2020/12/20 12:49:33;;;;;;;1.23;0.63;;;18.50;65.10;;;;;;4985671;28;20070;-66
2020/12/20 12:52:03;;;;;;;2.88;1.27;;;18.40;65.10;;;;;;4992448;28;20501;-67
2020/12/20 12:54:39;;;;;;;4.22;0.95;;;18.40;65.20;;;;;;4993893;28;20042;-67
2020/12/20 12:57:10;;;;;;;1.30;0.82;;;18.40;65.20;;;;;;4993128;28;20099;-66
2020/12/20 12:59:46;;;;;;;3.08;0.88;;;18.40;65.30;;;;;;4993201;28;20046;-65
2020/12/20 13:02:17;;;;;;;1.83;0.95;;;18.30;65.20;;;;;;4989861;28;20045;-65
2020/12/20 13:04:47;;;;;;;1.33;0.80;;;18.30;65.20;;;;;;4999014;28;20481;-66
2020/12/20 13:07:17;;;;;;;4.38;1.23;;;18.30;65.30;;;;;;4966746;28;20053;-65
2020/12/20 13:09:48;;;;;;;0.77;0.63;;;18.30;65.40;;;;;;4997797;28;20106;-66
2020/12/20 13:12:21;;;;;;;2.35;0.70;;;18.30;65.40;;;;;;4997425;28;20117;-66
2020/12/20 13:14:52;;;;;;;0.90;0.70;;;18.30;65.40;;;;;;4991913;28;20078;-66
2020/12/20 13:17:26;;;;;;;2.17;0.70;;;18.20;65.40;;;;;;4988865;28;20069;-67
2020/12/20 13:20:00;;;;;;;2.17;0.82;;;18.20;65.50;;;;;;4988862;28;20069;-67
2020/12/20 13:22:31;;;;;;;1.95;0.70;;;18.20;65.50;;;;;;4983496;28;20053;-67
2020/12/20 13:25:01;;;;;;;1.00;0.80;;;18.20;65.60;;;;;;4992015;28;20050;-66
2020/12/20 13:27:31;;;;;;;2.53;0.70;;;18.20;65.60;;;;;;4990753;28;20430;-66
2020/12/20 13:30:02;;;;;;;1.63;0.85;;;18.10;65.60;;;;;;4994606;28;20100;-65
2020/12/20 13:32:35;;;;;;;0.93;0.70;;;18.10;65.60;;;;;;4991381;28;20065;-66